createdAt,value
2022-10-09T00:00:38.597Z,6.00
2022-10-09T00:03:08.588Z,5.90
2022-10-09T00:05:08.561Z,5.80
2022-10-09T00:07:08.596Z,5.70
2022-10-09T00:09:08.550Z,5.60
2022-10-09T00:11:08.562Z,5.60
2022-10-09T00:13:08.561Z,5.70
2022-10-09T00:15:08.538Z,5.60
2022-10-09T00:17:08.615Z,5.60
2022-10-09T00:19:08.569Z,5.40
2022-10-09T00:21:08.622Z,5.40
2022-10-09T00:23:08.586Z,5.30
2022-10-09T00:25:08.626Z,5.20
2022-10-09T00:27:08.566Z,5.20
2022-10-09T00:29:08.562Z,5.20
2022-10-09T00:31:08.626Z,5.10
2022-10-09T00:33:08.575Z,5.10
2022-10-09T00:35:08.558Z,5.30
2022-10-09T00:37:08.562Z,5.40
2022-10-09T00:39:08.585Z,5.40
2022-10-09T00:41:08.530Z,5.60
2022-10-09T00:43:08.545Z,5.80
2022-10-09T00:45:08.572Z,5.90
2022-10-09T00:47:08.553Z,6.00
2022-10-09T00:49:08.592Z,6.00
2022-10-09T00:51:08.554Z,6.10
2022-10-09T00:53:08.592Z,6.00
2022-10-09T00:55:08.592Z,6.00
2022-10-09T00:57:08.713Z,6.00
2022-10-09T00:59:08.544Z,6.00
2022-10-09T01:01:08.621Z,5.90
2022-10-09T01:03:08.620Z,5.80
2022-10-09T01:05:08.594Z,5.70
2022-10-09T01:07:08.588Z,5.70
2022-10-09T01:09:08.605Z,5.60
2022-10-09T01:11:08.541Z,5.50
2022-10-09T01:13:08.592Z,5.50
2022-10-09T01:15:08.592Z,5.20
2022-10-09T01:17:08.625Z,5.20
2022-10-09T01:19:08.551Z,5.20
2022-10-09T01:21:08.620Z,5.10
2022-10-09T01:23:08.601Z,4.90
2022-10-09T01:25:08.599Z,4.90
2022-10-09T01:27:08.548Z,4.90
2022-10-09T01:29:08.615Z,4.90
2022-10-09T01:31:08.660Z,4.90
2022-10-09T01:33:08.566Z,5.80
2022-10-09T01:35:08.560Z,5.80
2022-10-09T01:37:08.650Z,6.10
2022-10-09T01:39:08.600Z,6.30
2022-10-09T01:41:08.601Z,6.40
2022-10-09T01:43:08.595Z,6.40
2022-10-09T01:45:08.670Z,6.40
2022-10-09T01:47:08.565Z,6.50
2022-10-09T01:49:08.694Z,6.60
2022-10-09T01:51:08.654Z,6.60
2022-10-09T01:53:08.605Z,6.60
2022-10-09T01:55:38.696Z,6.60
2022-10-09T01:57:38.579Z,6.80
2022-10-09T01:59:38.676Z,6.80
2022-10-09T02:01:38.667Z,7.00
2022-10-09T02:03:38.740Z,7.00
2022-10-09T02:05:38.685Z,7.10
2022-10-09T02:07:38.673Z,7.20
2022-10-09T02:09:38.642Z,7.20
2022-10-09T02:11:38.622Z,7.20
2022-10-09T02:13:38.584Z,7.20
2022-10-09T02:17:38.639Z,7.40
2022-10-09T02:21:38.681Z,7.40
2022-10-09T02:25:46.524Z,7.30
2022-10-09T02:27:46.503Z,7.20
2022-10-09T02:29:46.500Z,7.20
2022-10-09T02:31:46.565Z,7.20
2022-10-09T02:33:46.473Z,7.00
2022-10-09T02:35:46.478Z,7.00
2022-10-09T02:37:46.452Z,6.80
2022-10-09T02:39:46.475Z,6.70
2022-10-09T02:41:46.520Z,6.70
2022-10-09T02:43:46.453Z,6.50
2022-10-09T02:45:46.476Z,6.40
2022-10-09T02:47:46.482Z,6.20
2022-10-09T02:49:46.477Z,6.20
2022-10-09T02:51:46.573Z,6.20
2022-10-09T02:53:46.497Z,6.10
2022-10-09T02:55:46.479Z,6.20
2022-10-09T02:57:46.460Z,6.20
2022-10-09T02:59:46.527Z,6.20
2022-10-09T03:01:46.614Z,6.10
2022-10-09T03:03:46.463Z,6.10
2022-10-09T03:05:46.568Z,6.10
2022-10-09T03:07:46.520Z,6.10
2022-10-09T03:09:46.524Z,6.10
2022-10-09T03:11:46.468Z,6.00
2022-10-09T03:13:46.490Z,5.90
2022-10-09T03:15:46.579Z,5.90
2022-10-09T03:17:46.480Z,5.90
2022-10-09T03:19:46.525Z,5.90
2022-10-09T03:21:46.526Z,5.90
2022-10-09T03:23:46.477Z,6.00
2022-10-09T03:25:46.493Z,6.00
2022-10-09T03:27:46.512Z,6.00
2022-10-09T03:29:46.477Z,6.00
2022-10-09T03:31:52.443Z,6.00
2022-10-09T03:33:46.480Z,6.00
2022-10-09T03:35:46.506Z,5.80
2022-10-09T03:37:46.512Z,5.80
2022-10-09T03:39:46.497Z,5.70
2022-10-09T03:41:46.532Z,5.60
2022-10-09T03:43:46.556Z,5.60
2022-10-09T03:45:50.328Z,5.80
2022-10-09T03:47:46.565Z,5.80
2022-10-09T03:49:46.521Z,5.90
2022-10-09T03:51:46.537Z,6.00
2022-10-09T03:53:46.535Z,6.20
2022-10-09T03:55:46.558Z,6.20
2022-10-09T03:57:46.528Z,6.20
2022-10-09T03:59:46.529Z,6.40
2022-10-09T04:01:46.505Z,6.40
2022-10-09T04:03:46.624Z,6.50
2022-10-09T04:05:46.547Z,6.50
2022-10-09T04:07:46.524Z,6.50
2022-10-09T04:09:46.513Z,6.50
2022-10-09T04:11:46.584Z,6.50
2022-10-09T04:13:46.509Z,6.80
2022-10-09T04:15:46.562Z,6.80
2022-10-09T04:17:46.508Z,6.70
2022-10-09T04:20:16.521Z,6.70
2022-10-09T04:22:16.542Z,6.50
2022-10-09T04:24:16.540Z,6.50
2022-10-09T04:26:16.578Z,6.40
2022-10-09T04:28:16.606Z,6.40
2022-10-09T04:30:16.572Z,6.40
2022-10-09T04:32:16.527Z,6.40
2022-10-09T04:34:16.598Z,6.30
2022-10-09T04:36:16.536Z,6.30
2022-10-09T04:38:16.531Z,6.30
2022-10-09T04:40:16.588Z,6.00
2022-10-09T04:42:16.540Z,6.00
2022-10-09T04:44:16.539Z,5.90
2022-10-09T04:46:16.710Z,5.80
2022-10-09T04:48:16.569Z,5.80
2022-10-09T04:50:16.559Z,5.70
2022-10-09T04:52:16.576Z,5.60
2022-10-09T04:54:16.546Z,5.60
2022-10-09T04:56:16.771Z,5.70
2022-10-09T04:58:16.570Z,5.70
2022-10-09T05:00:16.545Z,5.80
2022-10-09T05:02:16.583Z,5.60
2022-10-09T05:04:16.658Z,5.60
2022-10-09T05:06:16.586Z,5.60
2022-10-09T05:08:16.571Z,5.60
2022-10-09T05:10:16.541Z,5.60
2022-10-09T05:12:16.590Z,5.80
2022-10-09T05:14:16.604Z,5.80
2022-10-09T05:16:16.658Z,5.80
2022-10-09T05:18:16.608Z,5.80
2022-10-09T05:20:16.556Z,5.90
2022-10-09T05:22:16.564Z,5.90
2022-10-09T05:24:16.574Z,6.00
2022-10-09T05:26:16.583Z,6.00
2022-10-09T05:28:16.636Z,6.00
2022-10-09T05:30:16.585Z,6.10
2022-10-09T05:32:16.626Z,6.00
2022-10-09T05:34:16.570Z,6.00
2022-10-09T05:36:16.555Z,6.00
2022-10-09T05:38:16.558Z,6.10
2022-10-09T05:40:16.557Z,6.10
2022-10-09T05:42:16.613Z,6.00
2022-10-09T05:44:16.561Z,6.00
2022-10-09T05:46:16.647Z,6.10
2022-10-09T05:48:16.686Z,6.10
2022-10-09T05:50:16.601Z,6.10
2022-10-09T05:52:16.589Z,6.10
2022-10-09T05:54:16.621Z,6.10
2022-10-09T05:56:16.599Z,6.10
2022-10-09T05:58:16.569Z,6.10
2022-10-09T06:00:16.665Z,6.20
2022-10-09T06:02:16.621Z,6.20
2022-10-09T06:04:16.736Z,6.20
2022-10-09T06:06:16.575Z,6.30
2022-10-09T06:08:16.586Z,6.30
2022-10-09T06:10:16.578Z,6.30
2022-10-09T06:12:16.736Z,6.30
2022-10-09T06:14:16.636Z,6.20
2022-10-09T06:16:46.695Z,6.20
2022-10-09T06:18:49.062Z,6.10
2022-10-09T06:20:46.605Z,6.20
2022-10-09T06:22:46.895Z,6.20
2022-10-09T06:24:46.626Z,6.10
2022-10-09T06:26:46.625Z,6.10
2022-10-09T06:28:46.671Z,6.20
2022-10-09T06:30:46.703Z,6.20
2022-10-09T06:32:46.939Z,6.20
2022-10-09T06:34:46.594Z,6.40
2022-10-09T06:36:46.657Z,6.50
2022-10-09T06:38:46.653Z,6.50
2022-10-09T06:40:46.600Z,6.50
2022-10-09T06:42:49.433Z,6.60
2022-10-09T06:44:46.622Z,6.70
2022-10-09T06:46:46.600Z,6.70
2022-10-09T06:48:46.697Z,6.80
2022-10-09T06:50:46.641Z,6.80
2022-10-09T06:52:46.978Z,6.80
2022-10-09T06:54:46.598Z,6.90
2022-10-09T06:56:46.612Z,7.00
2022-10-09T06:58:46.671Z,7.20
2022-10-09T07:00:46.672Z,7.20
2022-10-09T07:02:47.087Z,7.20
2022-10-09T07:04:46.606Z,7.40
2022-10-09T07:06:46.619Z,7.40
2022-10-09T07:08:46.632Z,7.40
2022-10-09T07:10:46.745Z,7.60
2022-10-09T07:12:47.004Z,7.90
2022-10-09T07:14:46.700Z,8.00
2022-10-09T07:16:46.676Z,8.20
2022-10-09T07:18:46.737Z,8.20
2022-10-09T07:20:46.664Z,8.20
2022-10-09T07:22:47.036Z,8.50
2022-10-09T07:24:46.671Z,8.70
2022-10-09T07:26:46.739Z,8.80
2022-10-09T07:28:46.758Z,8.80
2022-10-09T07:30:46.673Z,8.90
2022-10-09T07:32:47.057Z,8.90
2022-10-09T07:34:46.705Z,9.00
2022-10-09T07:36:46.654Z,9.00
2022-10-09T07:38:47.050Z,9.10
2022-10-09T07:40:46.784Z,9.20
2022-10-09T07:42:47.055Z,9.20
2022-10-09T07:44:46.634Z,9.30
2022-10-09T07:46:46.745Z,9.30
2022-10-09T07:48:46.653Z,9.40
2022-10-09T07:50:46.672Z,9.50
2022-10-09T07:52:49.884Z,9.50
2022-10-09T07:54:47.752Z,9.40
2022-10-09T07:56:46.811Z,9.40
2022-10-09T07:58:46.681Z,9.50
2022-10-09T08:00:46.696Z,9.50
2022-10-09T08:02:47.005Z,9.60
2022-10-09T08:04:46.724Z,9.60
2022-10-09T08:06:46.775Z,9.60
2022-10-09T08:08:46.728Z,9.70
2022-10-09T08:10:46.768Z,9.80
2022-10-09T08:13:16.773Z,9.90
2022-10-09T08:15:16.716Z,10.00
2022-10-09T08:17:16.703Z,10.00
2022-10-09T08:19:16.732Z,10.00
2022-10-09T08:21:16.726Z,10.00
2022-10-09T08:23:16.762Z,10.10
2022-10-09T08:25:16.663Z,10.20
2022-10-09T08:27:16.785Z,10.20
2022-10-09T08:29:16.681Z,10.20
2022-10-09T08:31:16.797Z,10.40
2022-10-09T08:33:16.714Z,10.40
2022-10-09T08:35:16.790Z,10.40
2022-10-09T08:37:16.764Z,10.40
2022-10-09T08:39:16.841Z,10.60
2022-10-09T08:41:16.671Z,10.60
2022-10-09T08:43:16.669Z,10.80
2022-10-09T08:45:16.724Z,10.80
2022-10-09T08:47:16.828Z,10.80
2022-10-09T08:49:16.822Z,10.90
2022-10-09T08:51:16.875Z,10.90
2022-10-09T08:53:16.774Z,10.90
2022-10-09T08:55:16.784Z,11.20
2022-10-09T08:57:16.835Z,11.20
2022-10-09T08:59:16.790Z,11.20
2022-10-09T09:01:16.742Z,11.40
2022-10-09T09:03:16.917Z,11.70
2022-10-09T09:05:16.784Z,11.70
2022-10-09T09:07:16.780Z,12.00
2022-10-09T09:09:16.767Z,12.30
2022-10-09T09:11:21.240Z,12.50
2022-10-09T09:13:16.852Z,12.70
2022-10-09T09:15:16.844Z,12.70
2022-10-09T09:17:16.809Z,13.00
2022-10-09T09:21:09.320Z,13.10
2022-10-09T09:23:09.314Z,13.20
2022-10-09T09:25:09.338Z,13.20
2022-10-09T09:27:09.348Z,13.60
2022-10-09T09:29:09.253Z,13.50
2022-10-09T09:31:09.473Z,13.90
2022-10-09T09:33:09.286Z,13.90
2022-10-09T09:35:09.316Z,13.90
2022-10-09T09:37:09.310Z,13.70
2022-10-09T09:41:39.374Z,14.30
2022-10-09T09:43:39.379Z,14.30
2022-10-09T09:45:39.291Z,14.80
2022-10-09T09:47:39.434Z,15.00
2022-10-09T09:49:39.280Z,15.20
2022-10-09T09:51:39.375Z,15.10
2022-10-09T09:53:39.367Z,15.10
2022-10-09T09:55:39.350Z,15.10
2022-10-09T09:57:39.383Z,15.50
2022-10-09T09:59:39.382Z,15.20
2022-10-09T10:01:39.374Z,15.20
2022-10-09T10:03:39.311Z,15.20
2022-10-09T10:05:39.374Z,15.00
2022-10-09T10:07:39.365Z,14.70
2022-10-09T10:09:39.358Z,14.70
2022-10-09T10:11:39.366Z,14.70
2022-10-09T10:13:39.410Z,14.90
2022-10-09T10:15:39.414Z,14.60
2022-10-09T10:17:39.302Z,14.40
2022-10-09T10:19:39.312Z,14.40
2022-10-09T10:21:39.379Z,14.40
2022-10-09T10:23:39.386Z,14.20
2022-10-09T10:25:39.379Z,14.20
2022-10-09T10:27:39.411Z,14.40
2022-10-09T10:29:39.302Z,14.80
2022-10-09T10:31:39.373Z,14.80
2022-10-09T10:33:39.428Z,14.60
2022-10-09T10:35:39.313Z,14.70
2022-10-09T10:37:39.336Z,14.60
2022-10-09T10:39:39.341Z,14.60
2022-10-09T10:41:39.422Z,14.60
2022-10-09T10:43:39.427Z,14.60
2022-10-09T10:45:39.410Z,14.80
2022-10-09T10:47:39.354Z,14.80
2022-10-09T10:49:39.335Z,14.80
2022-10-09T10:51:39.520Z,14.80
2022-10-09T10:53:39.406Z,14.80
2022-10-09T10:55:39.378Z,14.80
2022-10-09T10:57:39.451Z,15.00
2022-10-09T10:59:39.416Z,15.00
2022-10-09T11:01:39.461Z,14.80
2022-10-09T11:03:39.405Z,14.40
2022-10-09T11:05:39.347Z,14.60
2022-10-09T11:07:39.362Z,14.60
2022-10-09T11:09:39.401Z,14.60
2022-10-09T11:11:39.423Z,15.00
2022-10-09T11:13:39.464Z,15.10
2022-10-09T11:15:39.427Z,15.20
2022-10-09T11:17:39.430Z,15.20
2022-10-09T11:19:44.459Z,15.30
2022-10-09T11:21:39.380Z,15.10
2022-10-09T11:23:39.670Z,15.10
2022-10-09T11:25:39.428Z,14.90
2022-10-09T11:27:39.437Z,14.90
2022-10-09T11:29:41.054Z,15.00
2022-10-09T11:31:39.475Z,15.00
2022-10-09T11:33:39.467Z,15.20
2022-10-09T11:35:39.532Z,15.20
2022-10-09T11:37:39.437Z,15.10
2022-10-09T11:39:39.392Z,15.20
2022-10-09T11:41:39.374Z,15.00
2022-10-09T11:44:09.422Z,15.00
2022-10-09T11:46:09.554Z,14.60
2022-10-09T11:48:09.364Z,15.00
2022-10-09T11:50:09.361Z,15.00
2022-10-09T11:52:09.391Z,15.00
2022-10-09T11:54:11.068Z,15.10
2022-10-09T11:56:09.450Z,15.50
2022-10-09T11:58:09.446Z,15.40
2022-10-09T12:00:09.478Z,15.40
2022-10-09T12:02:09.537Z,15.00
2022-10-09T12:04:09.497Z,15.00
2022-10-09T12:06:09.527Z,15.50
2022-10-09T12:08:10.001Z,15.50
2022-10-09T12:10:09.495Z,15.70
2022-10-09T12:12:09.366Z,15.80
2022-10-09T12:14:09.463Z,15.20
2022-10-09T12:16:09.561Z,15.40
2022-10-09T12:18:09.524Z,15.40
2022-10-09T12:20:09.437Z,15.40
2022-10-09T12:22:09.546Z,15.90
2022-10-09T12:24:09.405Z,15.60
2022-10-09T12:26:09.454Z,15.90
2022-10-09T12:28:09.513Z,15.90
2022-10-09T12:30:09.490Z,15.70
2022-10-09T12:32:09.513Z,15.60
2022-10-09T12:34:09.489Z,15.60
2022-10-09T12:36:09.539Z,15.60
2022-10-09T12:38:09.537Z,15.80
2022-10-09T12:40:09.403Z,15.70
2022-10-09T12:42:09.516Z,15.30
2022-10-09T12:44:09.480Z,15.30
2022-10-09T12:46:09.617Z,15.30
2022-10-09T12:48:09.531Z,15.40
2022-10-09T12:50:09.511Z,15.20
2022-10-09T12:52:09.416Z,15.00
2022-10-09T12:54:09.457Z,14.80
2022-10-09T12:56:10.469Z,14.80
2022-10-09T12:58:09.493Z,14.60
2022-10-09T13:00:09.493Z,14.60
2022-10-09T13:02:09.662Z,14.40
2022-10-09T13:04:09.449Z,14.60
2022-10-09T13:06:09.555Z,14.60
2022-10-09T13:08:09.545Z,14.70
2022-10-09T13:10:09.408Z,14.80
2022-10-09T13:12:09.520Z,14.50
2022-10-09T13:14:09.416Z,14.50
2022-10-09T13:16:09.410Z,14.40
2022-10-09T13:18:09.422Z,14.50
2022-10-09T13:20:09.493Z,14.80
2022-10-09T13:22:09.537Z,14.50
2022-10-09T13:24:09.538Z,14.50
2022-10-09T13:26:09.485Z,14.50
2022-10-09T13:28:09.484Z,14.20
2022-10-09T13:30:09.517Z,14.20
2022-10-09T13:32:09.522Z,14.20
2022-10-09T13:34:09.515Z,14.20
2022-10-09T13:36:09.516Z,14.20
2022-10-09T13:38:09.436Z,14.20
2022-10-09T13:40:09.570Z,14.00
2022-10-09T13:42:09.452Z,14.00
2022-10-09T13:44:09.492Z,14.00
2022-10-09T13:46:39.574Z,14.00
2022-10-09T13:48:39.518Z,14.00
2022-10-09T13:50:39.598Z,14.00
2022-10-09T13:54:39.595Z,14.00
2022-10-09T13:56:39.476Z,13.90
2022-10-09T13:58:39.476Z,13.90
2022-10-09T14:00:39.490Z,13.80
2022-10-09T14:02:39.583Z,13.80
2022-10-09T14:04:39.544Z,13.70
2022-10-09T14:06:39.661Z,13.70
2022-10-09T14:08:39.576Z,13.70
2022-10-09T14:10:39.615Z,13.70
2022-10-09T14:12:39.551Z,13.70
2022-10-09T14:14:39.503Z,13.70
2022-10-09T14:16:39.515Z,13.70
2022-10-09T14:18:39.565Z,13.80
2022-10-09T14:20:39.472Z,13.80
2022-10-09T14:22:39.602Z,13.90
2022-10-09T14:24:39.613Z,14.00
2022-10-09T14:26:39.487Z,14.00
2022-10-09T14:28:39.546Z,14.00
2022-10-09T14:30:39.543Z,14.00
2022-10-09T14:32:40.641Z,14.00
2022-10-09T14:34:39.675Z,14.00
2022-10-09T14:36:39.603Z,14.00
2022-10-09T14:38:39.560Z,14.00
2022-10-09T14:40:40.500Z,13.90
2022-10-09T14:42:39.545Z,13.80
2022-10-09T14:44:39.588Z,13.80
2022-10-09T14:46:39.543Z,13.80
2022-10-09T14:48:39.550Z,13.80
2022-10-09T14:50:39.580Z,13.60
2022-10-09T14:52:39.599Z,13.50
2022-10-09T14:54:39.625Z,13.40
2022-10-09T14:56:39.635Z,13.30
2022-10-09T14:58:39.488Z,13.30
2022-10-09T15:00:39.553Z,13.20
2022-10-09T15:02:39.672Z,13.20
2022-10-09T15:04:39.659Z,13.10
2022-10-09T15:06:40.616Z,13.00
2022-10-09T15:08:39.583Z,13.00
2022-10-09T15:10:39.634Z,13.00
2022-10-09T15:12:39.584Z,13.00
2022-10-09T15:14:39.531Z,12.80
2022-10-09T15:16:39.611Z,12.80
2022-10-09T15:18:39.564Z,12.80
2022-10-09T15:20:39.529Z,12.80
2022-10-09T15:22:39.624Z,12.70
2022-10-09T15:24:39.626Z,12.80
2022-10-09T15:26:39.701Z,12.80
2022-10-09T15:28:39.740Z,12.80
2022-10-09T15:30:39.808Z,12.60
2022-10-09T15:32:39.562Z,12.70
2022-10-09T15:34:41.145Z,12.60
2022-10-09T15:36:39.629Z,12.60
2022-10-09T15:38:39.598Z,12.50
2022-10-09T15:40:39.607Z,12.40
2022-10-09T15:43:09.556Z,12.40
2022-10-09T15:45:09.713Z,12.30
2022-10-09T15:47:09.620Z,12.30
2022-10-09T15:49:09.596Z,12.30
2022-10-09T15:51:09.648Z,12.30
2022-10-09T15:53:09.701Z,12.20
2022-10-09T15:55:09.620Z,12.30
2022-10-09T15:57:09.580Z,12.10
2022-10-09T15:59:09.697Z,12.10
2022-10-09T16:01:09.565Z,12.10
2022-10-09T16:03:09.629Z,12.10
2022-10-09T16:05:09.651Z,12.00
2022-10-09T16:07:09.634Z,12.00
2022-10-09T16:09:09.628Z,12.00
2022-10-09T16:13:09.682Z,12.00
2022-10-09T16:15:09.720Z,11.90
2022-10-09T16:17:11.462Z,11.90
2022-10-09T16:19:09.685Z,11.80
2022-10-09T16:21:09.528Z,11.80
2022-10-09T16:23:09.639Z,11.70
2022-10-09T16:25:09.637Z,11.60
2022-10-09T16:27:09.701Z,11.60
2022-10-09T16:29:09.754Z,11.60
2022-10-09T16:31:09.591Z,11.50
2022-10-09T16:33:12.614Z,11.50
2022-10-09T16:35:00.015Z,11.40
2022-10-09T16:37:00.036Z,11.40
2022-10-09T16:39:00.017Z,11.30
2022-10-09T16:41:02.256Z,11.30
2022-10-09T16:42:59.947Z,11.20
2022-10-09T16:45:00.077Z,11.20
2022-10-09T16:47:00.007Z,11.10
2022-10-09T16:49:00.124Z,11.10
2022-10-09T16:50:59.998Z,11.10
2022-10-09T16:53:00.053Z,11.10
2022-10-09T16:55:00.749Z,11.10
2022-10-09T16:57:00.083Z,11.00
2022-10-09T16:59:00.103Z,11.00
2022-10-09T17:01:00.116Z,10.90
2022-10-09T17:03:29.966Z,10.90
2022-10-09T17:05:30.314Z,10.90
2022-10-09T17:07:30.129Z,10.90
2022-10-09T17:09:30.071Z,10.90
2022-10-09T17:11:30.154Z,10.90
2022-10-09T17:13:30.032Z,10.90
2022-10-09T17:15:30.087Z,10.80
2022-10-09T17:17:29.988Z,10.80
2022-10-09T17:19:30.025Z,10.80
2022-10-09T17:21:34.115Z,10.70
2022-10-09T17:23:30.040Z,10.70
2022-10-09T17:25:30.045Z,10.60
2022-10-09T17:27:30.077Z,10.60
2022-10-09T17:29:30.083Z,10.60
2022-10-09T17:31:30.173Z,10.60
2022-10-09T17:33:30.109Z,10.60
2022-10-09T17:35:30.161Z,10.50
2022-10-09T17:37:30.035Z,10.50
2022-10-09T17:39:30.071Z,10.50
2022-10-09T17:41:30.085Z,10.50
2022-10-09T17:43:30.143Z,10.60
2022-10-09T17:45:30.115Z,10.60
2022-10-09T17:47:30.027Z,10.60
2022-10-09T17:49:30.019Z,10.50
2022-10-09T17:51:30.055Z,10.50
2022-10-09T17:53:30.061Z,10.40
2022-10-09T17:55:33.145Z,10.40
2022-10-09T17:57:30.106Z,10.40
2022-10-09T17:59:30.090Z,10.40
2022-10-09T18:01:30.091Z,10.40
2022-10-09T18:03:30.045Z,10.30
2022-10-09T18:05:29.980Z,10.20
2022-10-09T18:07:30.065Z,10.20
2022-10-09T18:09:30.085Z,10.20
2022-10-09T18:11:30.163Z,10.20
2022-10-09T18:13:30.119Z,10.10
2022-10-09T18:15:30.139Z,10.10
2022-10-09T18:17:30.013Z,10.10
2022-10-09T18:19:30.043Z,10.10
2022-10-09T18:21:30.041Z,10.10
2022-10-09T18:23:30.065Z,10.00
2022-10-09T18:25:30.079Z,10.00
2022-10-09T18:27:30.122Z,10.00
2022-10-09T18:29:30.129Z,10.00
2022-10-09T18:31:30.036Z,10.00
2022-10-09T18:33:30.002Z,9.90
2022-10-09T18:35:30.087Z,9.80
2022-10-09T18:37:30.128Z,9.80
2022-10-09T18:39:30.056Z,9.80
2022-10-09T18:41:30.155Z,9.80
2022-10-09T18:43:30.106Z,9.80
2022-10-09T18:45:30.151Z,9.80
2022-10-09T18:47:30.123Z,9.80
2022-10-09T18:49:30.080Z,9.70
2022-10-09T18:51:30.073Z,9.70
2022-10-09T18:53:30.113Z,9.70
2022-10-09T18:55:30.121Z,9.70
2022-10-09T18:57:30.123Z,9.70
2022-10-09T19:00:00.142Z,9.50
2022-10-09T19:02:00.106Z,9.50
2022-10-09T19:04:00.032Z,9.50
2022-10-09T19:06:00.069Z,9.60
2022-10-09T19:08:00.110Z,9.70
2022-10-09T19:10:00.135Z,9.80
2022-10-09T19:12:00.129Z,9.80
2022-10-09T19:14:00.189Z,9.80
2022-10-09T19:16:00.134Z,9.80
2022-10-09T19:18:00.053Z,9.80
2022-10-09T19:20:00.071Z,9.80
2022-10-09T19:22:00.121Z,9.70
2022-10-09T19:24:00.072Z,9.70
2022-10-09T19:26:00.064Z,9.70
2022-10-09T19:28:00.137Z,9.70
2022-10-09T19:30:00.037Z,9.70
2022-10-09T19:32:00.141Z,9.70
2022-10-09T19:34:00.052Z,9.60
2022-10-09T19:36:00.033Z,9.60
2022-10-09T19:38:00.122Z,9.60
2022-10-09T19:40:00.056Z,9.60
2022-10-09T19:42:00.190Z,9.60
2022-10-09T19:44:00.068Z,9.50
2022-10-09T19:46:00.048Z,9.40
2022-10-09T19:48:00.374Z,9.40
2022-10-09T19:50:00.139Z,9.30
2022-10-09T19:52:00.126Z,9.30
2022-10-09T19:54:00.082Z,9.30
2022-10-09T19:56:00.128Z,9.40
2022-10-09T19:58:00.061Z,9.40
2022-10-09T20:00:00.041Z,9.40
2022-10-09T20:02:00.070Z,9.40
2022-10-09T20:04:00.083Z,9.30
2022-10-09T20:06:00.077Z,9.50
2022-10-09T20:08:00.147Z,9.50
2022-10-09T20:10:00.126Z,9.60
2022-10-09T20:12:00.240Z,9.60
2022-10-09T20:14:00.081Z,9.70
2022-10-09T20:16:00.171Z,9.70
2022-10-09T20:18:00.094Z,9.80
2022-10-09T20:20:00.097Z,9.80
2022-10-09T20:22:00.111Z,9.80
2022-10-09T20:24:00.128Z,9.80
2022-10-09T20:26:00.157Z,9.80
2022-10-09T20:28:00.115Z,9.90
2022-10-09T20:30:00.132Z,9.80
2022-10-09T20:32:00.123Z,9.80
2022-10-09T20:34:00.124Z,9.80
2022-10-09T20:36:00.136Z,9.80
2022-10-09T20:38:00.110Z,9.80
2022-10-09T20:40:00.111Z,9.70
2022-10-09T20:42:00.173Z,9.60
2022-10-09T20:44:00.076Z,9.60
2022-10-09T20:46:00.111Z,9.60
2022-10-09T20:48:00.248Z,9.50
2022-10-09T20:50:00.098Z,9.40
2022-10-09T20:52:00.105Z,9.40
2022-10-09T20:54:00.188Z,9.40
2022-10-09T20:56:30.131Z,9.40
2022-10-09T20:58:30.160Z,9.50
2022-10-09T21:00:30.134Z,9.50
2022-10-09T21:02:30.153Z,9.70
2022-10-09T21:04:30.169Z,9.70
2022-10-09T21:06:30.155Z,9.80
2022-10-09T21:08:30.165Z,9.90
2022-10-09T21:10:30.112Z,10.00
2022-10-09T21:12:30.186Z,10.00
2022-10-09T21:14:30.098Z,10.00
2022-10-09T21:16:30.100Z,10.00
2022-10-09T21:18:30.097Z,10.00
2022-10-09T21:20:30.137Z,9.90
2022-10-09T21:22:30.110Z,9.90
2022-10-09T21:24:30.106Z,9.90
2022-10-09T21:26:30.161Z,9.90
2022-10-09T21:28:30.202Z,9.80
2022-10-09T21:30:30.118Z,9.80
2022-10-09T21:32:30.134Z,9.80
2022-10-09T21:34:30.120Z,9.80
2022-10-09T21:36:30.196Z,9.80
2022-10-09T21:38:30.142Z,9.80
2022-10-09T21:40:30.133Z,9.70
2022-10-09T21:42:30.158Z,9.70
2022-10-09T21:44:30.236Z,9.60
2022-10-09T21:46:30.154Z,9.60
2022-10-09T21:48:30.162Z,9.50
2022-10-09T21:50:30.174Z,9.50
2022-10-09T21:52:30.149Z,9.30
2022-10-09T21:54:30.177Z,9.20
2022-10-09T21:56:30.124Z,9.20
2022-10-09T21:58:30.120Z,9.00
2022-10-09T22:00:30.159Z,9.00
2022-10-09T22:02:30.183Z,8.90
2022-10-09T22:04:30.142Z,9.00
2022-10-09T22:06:30.145Z,9.20
2022-10-09T22:08:30.142Z,9.20
2022-10-09T22:10:30.156Z,9.20
2022-10-09T22:12:30.173Z,9.20
2022-10-09T22:14:30.124Z,9.20
2022-10-09T22:16:30.168Z,9.20
2022-10-09T22:18:30.128Z,9.20
2022-10-09T22:20:30.170Z,9.20
2022-10-09T22:22:30.155Z,9.20
2022-10-09T22:24:30.167Z,9.20
2022-10-09T22:26:30.216Z,9.10
2022-10-09T22:28:30.360Z,9.10
2022-10-09T22:30:30.174Z,9.00
2022-10-09T22:32:30.210Z,8.90
2022-10-09T22:34:30.161Z,8.80
2022-10-09T22:36:30.205Z,8.70
2022-10-09T22:38:30.160Z,8.70
2022-10-09T22:40:30.164Z,8.60
2022-10-09T22:42:30.261Z,8.60
2022-10-09T22:44:30.151Z,8.60
2022-10-09T22:46:30.324Z,8.60
2022-10-09T22:48:30.165Z,8.50
2022-10-09T22:50:30.165Z,8.50
2022-10-09T22:53:00.177Z,8.50
2022-10-09T22:55:00.186Z,8.50
2022-10-09T22:57:00.165Z,8.40
2022-10-09T22:59:00.165Z,8.40
2022-10-09T23:01:01.299Z,8.40
2022-10-09T23:03:00.256Z,8.30
2022-10-09T23:05:00.190Z,8.20
2022-10-09T23:07:00.231Z,8.10
2022-10-09T23:09:00.330Z,8.00
2022-10-09T23:11:00.237Z,8.00
2022-10-09T23:13:00.417Z,8.00
2022-10-09T23:15:00.161Z,7.90
2022-10-09T23:17:00.264Z,7.90
2022-10-09T23:19:04.175Z,7.90
2022-10-09T23:21:00.284Z,7.80
2022-10-09T23:23:00.250Z,7.80
2022-10-09T23:25:00.206Z,7.80
2022-10-09T23:27:00.253Z,7.70
2022-10-09T23:29:00.284Z,7.70
2022-10-09T23:31:00.488Z,7.70
2022-10-09T23:33:00.274Z,7.60
2022-10-09T23:35:00.238Z,7.60
2022-10-09T23:41:08.620Z,7.60
2022-10-09T23:43:08.667Z,7.50
2022-10-09T23:45:08.658Z,7.50
2022-10-09T23:47:08.669Z,7.50
2022-10-09T23:49:08.704Z,7.40
2022-10-09T23:51:08.635Z,7.40
2022-10-09T23:53:08.691Z,7.40
2022-10-09T23:55:08.688Z,7.40
2022-10-09T23:57:08.683Z,7.40
2022-10-09T23:59:08.685Z,7.40
